Terminal Aerodrome Forecast
Issued by NWS Wilmington, NC

Home | Current Version | Previous Version | Text Only | Print | Product List | Glossary On
Versions: 1 2 3 4 5 6 7 8 9 10 11 12 13 14 15 16 17
000
FTUS42 KILM 041120
TAFMYR
TAF
KMYR 041120Z 0412/0512 24007KT 6SM -SHRA SCT025 BKN050
     FM041400 26012G18KT P6SM SCT080 SCT100
     FM041800 23011G20KT P6SM VCSH SCT050 SCT250
     FM050000 22008KT P6SM FEW050 BKN250=

USA.gov is the U.S. government's official web portal to all federal, state and local government web resources and services.